Lewistown, Ohio
Current Conditions -  °F | °C
As of 11:15 AM on Wednesday 22 Oct 2014 (Local Time) from KEDJ Reporting Station
Overcast Overcast  
Wind Chill: 37°   Ceiling: 1000
Heat Index: 43°   Visibility: 10mi
Dew Point: 41°   Wind: 10mph
Humidity: 93%   Direction: 350°N
Pressure: 30.3"   Gusts: NA
Location:  40.42°N, 83.88°W
Report Text: KEDJ 221515Z AUTO 35009KT 10SM OVC010 06/05 A3030 RMK AO1
Loading
Personal Weather Stations






























Interactive Weather Map
Tropical Storm Tracking
New forecast layout! Learn more

10-Day Weather Forecast

Advertisements
Track Severe Weather on mobile